Time;durP1;ratioP1;P1;durP2;ratioP2;P2;SDS_P1;SDS_P2;PMS_P1;PMS_P2;Temp;Humidity;BMP_temperature;BMP_pressure;BME280_temperature;BME280_humidity;BME280_pressure;Samples;Min_cycle;Max_cycle;Signal;HPM_P1;HPM_P2
2023/09/08 00:00:18;;;;;;;7.93;5.87;;;19.20;99.90;;;;;;5243844;28;20289;-45
2023/09/08 00:02:48;;;;;;;9.67;6.83;;;19.20;99.90;;;;;;5238781;28;20190;-45
2023/09/08 00:05:19;;;;;;;9.53;6.77;;;19.10;99.90;;;;;;5243816;28;20190;-45
2023/09/08 00:07:50;;;;;;;8.23;7.00;;;19.10;99.90;;;;;;5242511;28;20720;-45
2023/09/08 00:10:20;;;;;;;8.83;6.20;;;19.10;99.90;;;;;;5236264;28;20234;-45
2023/09/08 00:12:51;;;;;;;8.63;6.57;;;19.10;99.90;;;;;;5233650;28;20199;-46
2023/09/08 00:15:21;;;;;;;9.03;6.67;;;19.00;99.90;;;;;;5236876;28;20202;-46
2023/09/08 00:17:52;;;;;;;10.83;7.37;;;19.00;99.90;;;;;;5240147;28;20675;-45
2023/09/08 00:20:23;;;;;;;7.37;6.67;;;19.00;99.90;;;;;;5235833;28;20563;-45
2023/09/08 00:22:53;;;;;;;7.47;6.80;;;19.00;99.90;;;;;;5247629;28;20186;-46
2023/09/08 00:25:24;;;;;;;8.50;6.87;;;19.00;99.90;;;;;;5240346;28;20193;-45
2023/09/08 00:27:54;;;;;;;7.87;6.43;;;19.00;99.90;;;;;;5248788;28;20277;-45
2023/09/08 00:30:25;;;;;;;8.80;6.87;;;18.90;99.90;;;;;;5239266;28;20264;-45
2023/09/08 00:32:56;;;;;;;13.03;7.50;;;18.90;99.90;;;;;;5236830;28;20198;-45
2023/09/08 00:35:26;;;;;;;12.03;7.37;;;18.90;99.90;;;;;;5234446;28;20574;-51
2023/09/08 00:37:57;;;;;;;13.40;6.83;;;18.90;99.90;;;;;;5246931;28;20261;-45
2023/09/08 00:40:28;;;;;;;10.03;7.40;;;18.80;99.90;;;;;;5239962;28;20206;-45
2023/09/08 00:42:58;;;;;;;6.90;6.20;;;18.80;99.90;;;;;;5253572;28;20201;-46
2023/09/08 00:45:30;;;;;;;6.33;5.83;;;18.80;99.90;;;;;;5231241;28;20521;-45
2023/09/08 00:48:00;;;;;;;8.63;7.73;;;18.80;99.90;;;;;;5236848;28;20182;-45
2023/09/08 00:50:31;;;;;;;9.47;7.33;;;18.70;99.90;;;;;;5244220;28;20976;-45
2023/09/08 00:53:04;;;;;;;11.17;7.67;;;18.70;99.90;;;;;;5243791;28;20197;-45
2023/09/08 00:55:35;;;;;;;9.37;6.93;;;18.60;99.90;;;;;;5223041;28;20228;-45
2023/09/08 00:58:05;;;;;;;7.37;6.70;;;18.60;99.90;;;;;;5246065;28;20895;-45
2023/09/08 01:00:36;;;;;;;9.40;7.13;;;18.50;99.90;;;;;;5231381;28;20214;-45
2023/09/08 01:03:07;;;;;;;8.50;7.63;;;18.50;99.90;;;;;;5234317;28;20175;-44
2023/09/08 01:05:38;;;;;;;8.33;7.03;;;18.40;99.90;;;;;;5234582;28;20398;-45
2023/09/08 01:08:09;;;;;;;12.00;8.10;;;18.40;99.90;;;;;;5246535;28;20189;-45
2023/09/08 01:10:41;;;;;;;7.43;6.63;;;18.30;99.90;;;;;;5239286;28;20453;-45
2023/09/08 01:13:12;;;;;;;12.90;7.60;;;18.30;99.90;;;;;;5245780;28;20463;-45
2023/09/08 01:15:44;;;;;;;11.60;7.70;;;18.30;99.90;;;;;;5257870;28;20452;-45
2023/09/08 01:18:14;;;;;;;11.10;7.00;;;18.20;99.90;;;;;;5243476;28;20437;-45
2023/09/08 01:21:17;;;;;;;9.10;8.20;;;18.20;99.90;;;;;;5236591;28;20218;-46
2023/09/08 01:24:31;;;;;;;9.97;7.30;;;18.20;99.90;;;;;;5195045;28;20190;-45
2023/09/08 01:27:02;;;;;;;6.87;6.07;;;18.20;99.90;;;;;;5223041;28;20437;-47
2023/09/08 01:29:34;;;;;;;8.67;6.70;;;18.20;99.90;;;;;;5237952;28;20559;-45
2023/09/08 01:32:05;;;;;;;11.13;7.17;;;18.20;99.90;;;;;;5234035;28;21005;-46
2023/09/08 01:34:39;;;;;;;7.33;6.60;;;18.20;99.90;;;;;;5230992;28;20499;-45
2023/09/08 01:37:10;;;;;;;8.70;7.00;;;18.20;99.90;;;;;;5244279;28;20178;-45
2023/09/08 01:39:40;;;;;;;9.80;7.50;;;18.10;99.90;;;;;;5253775;28;20456;-45
2023/09/08 01:42:11;;;;;;;8.13;7.07;;;18.10;99.90;;;;;;5236761;28;20308;-45
2023/09/08 01:44:41;;;;;;;10.70;7.13;;;18.20;99.90;;;;;;5239966;28;20670;-45
2023/09/08 01:47:12;;;;;;;8.50;7.53;;;18.20;99.90;;;;;;5261857;28;20178;-44
2023/09/08 01:49:42;;;;;;;12.60;7.23;;;18.20;99.90;;;;;;5239821;28;20692;-44
2023/09/08 01:52:13;;;;;;;7.20;6.50;;;18.20;99.90;;;;;;5233921;28;20267;-46
2023/09/08 01:54:44;;;;;;;8.57;7.17;;;18.20;99.90;;;;;;5239650;28;20314;-45
2023/09/08 01:57:14;;;;;;;7.73;6.93;;;18.20;99.90;;;;;;5242884;28;20638;-45
2023/09/08 01:59:45;;;;;;;10.07;8.13;;;18.20;99.90;;;;;;5240920;28;20228;-46
2023/09/08 02:02:15;;;;;;;10.43;6.63;;;18.20;99.90;;;;;;5247393;28;20190;-44
2023/09/08 02:04:47;;;;;;;9.83;6.57;;;18.20;99.90;;;;;;5240304;28;20664;-46
2023/09/08 02:07:18;;;;;;;15.30;6.70;;;18.20;99.90;;;;;;5232841;28;20194;-47
2023/09/08 02:09:48;;;;;;;9.67;7.17;;;18.20;99.90;;;;;;5239118;28;20461;-46
2023/09/08 02:13:03;;;;;;;10.43;7.70;;;18.20;99.90;;;;;;5231824;28;20187;-46
2023/09/08 02:15:36;;;;;;;9.23;7.07;;;18.30;99.90;;;;;;5236099;28;20613;-45
2023/09/08 02:18:08;;;;;;;7.50;6.80;;;18.30;99.90;;;;;;5237276;28;20539;-46
2023/09/08 02:20:38;;;;;;;13.93;7.43;;;18.30;99.90;;;;;;5237357;28;20511;-45
2023/09/08 02:23:09;;;;;;;8.20;7.23;;;18.30;99.90;;;;;;5255526;28;20452;-45
2023/09/08 02:25:40;;;;;;;15.50;7.80;;;18.40;99.90;;;;;;5234988;28;20190;-45
2023/09/08 02:28:10;;;;;;;10.20;7.10;;;18.30;99.90;;;;;;5235673;28;20273;-47
2023/09/08 02:30:41;;;;;;;13.43;7.17;;;18.30;99.90;;;;;;5235600;28;20566;-45
2023/09/08 02:33:11;;;;;;;8.73;7.10;;;18.30;99.90;;;;;;5235210;28;20205;-45
2023/09/08 02:35:42;;;;;;;13.00;7.83;;;18.20;99.90;;;;;;5239521;28;20593;-46
2023/09/08 02:38:13;;;;;;;10.77;7.60;;;18.20;99.90;;;;;;5236312;28;20174;-46
2023/09/08 02:40:44;;;;;;;7.23;6.50;;;18.20;99.90;;;;;;5237590;28;20459;-46
2023/09/08 02:43:14;;;;;;;15.30;8.60;;;18.20;99.90;;;;;;5248563;28;20314;-45
2023/09/08 02:45:47;;;;;;;7.60;6.87;;;18.20;99.90;;;;;;5231266;28;20298;-46
2023/09/08 02:48:17;;;;;;;7.80;6.70;;;18.20;99.90;;;;;;5233317;28;20178;-46
2023/09/08 02:50:48;;;;;;;7.77;6.97;;;18.20;99.90;;;;;;5234801;28;20463;-45
2023/09/08 02:53:18;;;;;;;16.27;7.17;;;18.10;99.90;;;;;;5234501;28;20206;-46
2023/09/08 02:55:49;;;;;;;9.73;8.30;;;18.10;99.90;;;;;;5234638;28;20190;-45
2023/09/08 02:58:20;;;;;;;11.97;8.47;;;18.10;99.90;;;;;;5236135;28;20191;-45
2023/09/08 03:00:52;;;;;;;12.43;8.10;;;18.10;99.90;;;;;;5237970;28;20701;-46
2023/09/08 03:03:22;;;;;;;9.33;7.93;;;18.00;99.90;;;;;;5232334;28;20250;-45
2023/09/08 03:05:58;;;;;;;11.17;7.47;;;18.00;99.90;;;;;;5235967;28;20436;-45
2023/09/08 03:08:28;;;;;;;8.03;7.33;;;18.00;99.90;;;;;;5234798;28;20189;-45
2023/09/08 03:10:59;;;;;;;9.90;7.93;;;18.00;99.90;;;;;;5232128;28;20453;-45
2023/09/08 03:13:30;;;;;;;13.90;8.20;;;18.00;99.90;;;;;;5231786;28;20202;-45
2023/09/08 03:16:05;;;;;;;12.00;7.90;;;17.90;99.90;;;;;;5239952;28;20524;-45
2023/09/08 03:18:37;;;;;;;9.80;7.70;;;17.90;99.90;;;;;;5237570;28;20280;-47
2023/09/08 03:21:10;;;;;;;9.37;8.43;;;17.90;99.90;;;;;;5247721;28;20464;-45
2023/09/08 03:23:43;;;;;;;9.80;7.87;;;17.80;99.90;;;;;;5236148;28;20528;-45
2023/09/08 03:26:13;;;;;;;8.57;7.60;;;17.80;99.90;;;;;;5239602;28;20476;-46
2023/09/08 03:28:44;;;;;;;10.20;7.83;;;17.80;99.90;;;;;;5247871;28;20892;-46
2023/09/08 03:31:14;;;;;;;10.47;8.07;;;17.80;99.90;;;;;;5249693;28;20202;-45
2023/09/08 03:33:45;;;;;;;9.73;6.93;;;17.70;99.90;;;;;;5245275;28;20240;-47
2023/09/08 03:36:16;;;;;;;9.93;8.40;;;17.70;99.90;;;;;;5249160;28;20186;-45
2023/09/08 03:38:47;;;;;;;9.43;8.10;;;17.70;99.90;;;;;;5253710;28;20700;-47
2023/09/08 03:41:18;;;;;;;10.93;7.77;;;17.60;99.90;;;;;;5242270;28;20453;-46
2023/09/08 03:43:49;;;;;;;13.03;8.63;;;17.60;99.90;;;;;;5246908;28;20559;-45
2023/09/08 03:46:20;;;;;;;10.67;8.13;;;17.60;99.90;;;;;;5250165;28;20206;-45
2023/09/08 03:48:50;;;;;;;13.87;8.83;;;17.60;99.90;;;;;;5243362;28;20436;-44
2023/09/08 03:51:21;;;;;;;9.30;8.27;;;17.60;99.90;;;;;;5239085;28;20468;-46
2023/09/08 03:53:52;;;;;;;11.70;8.43;;;17.50;99.90;;;;;;5246979;28;20209;-46
2023/09/08 03:56:23;;;;;;;15.83;9.20;;;17.50;99.90;;;;;;5234292;28;20797;-46
2023/09/08 03:58:54;;;;;;;10.13;8.23;;;17.50;99.90;;;;;;5241455;28;20212;-46
2023/09/08 04:01:24;;;;;;;10.63;9.07;;;17.40;99.90;;;;;;5239566;28;20594;-45
2023/09/08 04:03:55;;;;;;;18.67;9.67;;;17.40;99.90;;;;;;5236809;28;20183;-46
2023/09/08 04:06:27;;;;;;;11.73;9.60;;;17.40;99.90;;;;;;5239819;28;20285;-45
2023/09/08 04:08:57;;;;;;;9.60;8.40;;;17.30;99.90;;;;;;5242928;28;20187;-45
2023/09/08 04:11:28;;;;;;;12.33;8.67;;;17.30;99.90;;;;;;5237673;28;20802;-45
2023/09/08 04:13:59;;;;;;;14.60;8.90;;;17.40;99.90;;;;;;5244979;28;20230;-45
2023/09/08 04:16:29;;;;;;;14.20;9.00;;;17.30;99.90;;;;;;5241783;28;20182;-45
2023/09/08 04:19:00;;;;;;;15.17;9.83;;;17.20;99.90;;;;;;5242260;28;20179;-46
2023/09/08 04:21:31;;;;;;;13.60;8.40;;;17.20;99.90;;;;;;5242625;28;20561;-45
2023/09/08 04:24:01;;;;;;;12.27;8.67;;;17.20;99.90;;;;;;5237515;28;20193;-46
2023/09/08 04:26:32;;;;;;;22.43;9.90;;;17.20;99.90;;;;;;5248703;28;20273;-45
2023/09/08 04:29:02;;;;;;;11.93;9.80;;;17.20;99.90;;;;;;5239947;28;20193;-45
2023/09/08 04:31:33;;;;;;;11.47;8.83;;;17.10;99.90;;;;;;5255695;28;20248;-46
2023/09/08 04:34:03;;;;;;;10.37;8.80;;;17.10;99.90;;;;;;5248279;28;20214;-45
2023/09/08 04:36:34;;;;;;;10.60;8.83;;;17.10;99.90;;;;;;5242684;28;20179;-46
2023/09/08 04:39:05;;;;;;;15.33;8.57;;;17.10;99.90;;;;;;5243966;28;20187;-45
2023/09/08 04:41:35;;;;;;;9.57;8.57;;;17.10;99.90;;;;;;5234884;28;20278;-45
2023/09/08 04:44:06;;;;;;;12.83;9.10;;;17.10;99.90;;;;;;5237290;28;20191;-45
2023/09/08 04:46:37;;;;;;;15.90;10.30;;;17.10;99.90;;;;;;5242543;28;20195;-45
2023/09/08 04:49:07;;;;;;;10.13;9.13;;;17.10;99.90;;;;;;5232914;28;20556;-46
2023/09/08 04:51:38;;;;;;;10.43;8.57;;;17.10;99.90;;;;;;5234597;28;20231;-46
2023/09/08 04:54:08;;;;;;;13.33;9.10;;;17.10;99.90;;;;;;5237796;28;20218;-46
2023/09/08 04:56:40;;;;;;;12.63;9.23;;;17.10;99.90;;;;;;5241550;28;20205;-45
2023/09/08 04:59:11;;;;;;;15.07;8.90;;;17.10;99.90;;;;;;5236757;28;20194;-46
2023/09/08 05:01:43;;;;;;;12.80;9.70;;;17.10;99.90;;;;;;5242632;28;20464;-45
2023/09/08 05:04:14;;;;;;;12.80;8.80;;;17.10;99.90;;;;;;5241399;28;20604;-45
2023/09/08 05:06:44;;;;;;;14.00;9.77;;;17.10;99.90;;;;;;5261142;28;20501;-45
2023/09/08 05:09:15;;;;;;;14.43;8.80;;;17.10;99.90;;;;;;5243502;28;20186;-46
2023/09/08 05:11:45;;;;;;;15.73;8.90;;;17.20;99.90;;;;;;5246167;28;20367;-46
2023/09/08 05:14:16;;;;;;;13.80;9.97;;;17.20;99.90;;;;;;5243953;28;20248;-46
2023/09/08 05:16:49;;;;;;;10.80;8.47;;;17.30;99.90;;;;;;5235612;28;20517;-47
2023/09/08 05:19:20;;;;;;;11.40;9.30;;;17.40;99.90;;;;;;5238158;28;20296;-46
2023/09/08 05:21:51;;;;;;;15.50;9.07;;;17.40;99.90;;;;;;5237171;28;20507;-46
2023/09/08 05:24:22;;;;;;;13.47;8.70;;;17.50;99.90;;;;;;5238615;28;20175;-46
2023/09/08 05:26:53;;;;;;;13.40;9.03;;;17.50;99.90;;;;;;5231022;28;20453;-47
2023/09/08 05:29:24;;;;;;;15.57;9.60;;;17.50;99.90;;;;;;5242635;28;20178;-47
2023/09/08 05:31:54;;;;;;;12.60;8.40;;;17.60;99.90;;;;;;5232121;28;20760;-47
2023/09/08 05:34:25;;;;;;;13.60;8.80;;;17.70;99.90;;;;;;5235585;28;20226;-46
2023/09/08 05:36:56;;;;;;;14.53;9.60;;;17.70;99.90;;;;;;5234573;28;20244;-48
2023/09/08 05:39:26;;;;;;;13.40;8.90;;;17.70;99.90;;;;;;5234602;28;20195;-47
2023/09/08 05:41:57;;;;;;;14.40;9.90;;;17.80;99.90;;;;;;5234766;28;20187;-47
2023/09/08 05:44:27;;;;;;;12.40;8.33;;;17.90;99.90;;;;;;5221004;28;20540;-46
2023/09/08 05:46:58;;;;;;;10.40;7.73;;;18.00;99.90;;;;;;5236295;28;20221;-45
2023/09/08 05:49:29;;;;;;;12.60;9.70;;;18.00;99.90;;;;;;5236930;28;20218;-46
2023/09/08 05:51:59;;;;;;;13.60;9.47;;;18.20;99.90;;;;;;5238032;28;20553;-46
2023/09/08 05:54:30;;;;;;;13.37;8.53;;;18.50;99.90;;;;;;5255354;28;20273;-46
2023/09/08 05:57:01;;;;;;;10.07;8.33;;;18.90;99.90;;;;;;5238421;28;20179;-46
2023/09/08 05:59:31;;;;;;;11.23;7.83;;;20.10;99.90;;;;;;5248942;28;20179;-46
2023/09/08 06:02:02;;;;;;;12.07;8.93;;;22.30;99.90;;;;;;5241740;28;20214;-46
2023/09/08 06:04:33;;;;;;;16.07;8.00;;;24.70;98.80;;;;;;5216583;28;20290;-46
2023/09/08 06:07:03;;;;;;;8.40;7.60;;;26.30;91.30;;;;;;5240314;28;20365;-45
2023/09/08 06:09:34;;;;;;;14.87;8.03;;;27.70;77.90;;;;;;5232129;28;20206;-47
2023/09/08 06:12:05;;;;;;;11.33;7.80;;;28.30;69.00;;;;;;5235508;28;20586;-47
2023/09/08 06:14:36;;;;;;;8.40;7.37;;;29.00;64.00;;;;;;5231201;28;20213;-47
2023/09/08 06:17:06;;;;;;;11.50;7.47;;;29.30;60.00;;;;;;5238871;28;20821;-47
2023/09/08 06:19:37;;;;;;;12.47;8.07;;;29.90;57.20;;;;;;5239603;28;20175;-46
2023/09/08 06:22:07;;;;;;;15.03;7.00;;;30.80;55.00;;;;;;5228221;28;20237;-45
2023/09/08 06:24:38;;;;;;;12.30;6.87;;;31.70;53.00;;;;;;5235138;28;20197;-47
2023/09/08 06:27:08;;;;;;;7.87;6.90;;;32.60;49.10;;;;;;5235588;28;20438;-45
2023/09/08 06:29:40;;;;;;;11.17;7.47;;;31.90;48.10;;;;;;5238410;28;20661;-47
2023/09/08 06:32:11;;;;;;;10.20;6.07;;;31.50;48.30;;;;;;5223032;28;20290;-46
2023/09/08 06:34:42;;;;;;;10.03;6.90;;;31.30;48.70;;;;;;5234173;28;20556;-47
2023/09/08 06:37:13;;;;;;;8.33;7.27;;;31.50;47.70;;;;;;5236980;28;20510;-47
2023/09/08 06:39:44;;;;;;;9.00;6.60;;;31.70;47.20;;;;;;5236139;28;20428;-48
2023/09/08 06:42:14;;;;;;;6.17;5.53;;;32.10;46.70;;;;;;5235946;28;20267;-48
2023/09/08 06:44:45;;;;;;;10.73;7.27;;;32.40;46.40;;;;;;5233909;28;20626;-46
2023/09/08 06:47:15;;;;;;;10.83;6.20;;;32.90;44.80;;;;;;5233588;28;20235;-46
2023/09/08 06:49:47;;;;;;;6.70;6.10;;;33.10;44.00;;;;;;5217875;28;20210;-46
2023/09/08 06:52:17;;;;;;;14.30;6.80;;;33.00;43.60;;;;;;5233316;28;20537;-46
2023/09/08 06:54:48;;;;;;;15.90;6.53;;;33.10;43.30;;;;;;5238041;28;20460;-46
2023/09/08 06:57:21;;;;;;;20.50;6.80;;;33.40;43.00;;;;;;5234189;28;20197;-46
2023/09/08 06:59:52;;;;;;;7.23;6.50;;;33.80;42.90;;;;;;5236039;28;20615;-46
2023/09/08 07:02:23;;;;;;;8.80;6.53;;;34.00;41.60;;;;;;5234243;28;20436;-46
2023/09/08 07:04:53;;;;;;;14.37;6.90;;;34.30;41.40;;;;;;5232850;28;20182;-45
2023/09/08 07:07:24;;;;;;;10.73;6.30;;;34.60;40.70;;;;;;5234504;28;20212;-45
2023/09/08 07:09:54;;;;;;;9.13;6.70;;;34.40;40.00;;;;;;5232693;28;20277;-46
2023/09/08 07:12:25;;;;;;;6.17;5.57;;;34.00;40.50;;;;;;5246031;28;20185;-45
2023/09/08 07:14:56;;;;;;;9.03;6.67;;;34.10;41.20;;;;;;5241635;28;20193;-47
2023/09/08 07:17:27;;;;;;;7.00;5.37;;;35.00;40.00;;;;;;5243711;28;20197;-45
2023/09/08 07:19:58;;;;;;;9.87;5.80;;;36.10;39.00;;;;;;5229031;28;20449;-47
2023/09/08 07:22:28;;;;;;;7.83;5.90;;;37.50;36.80;;;;;;5235964;28;20268;-48
2023/09/08 07:24:59;;;;;;;13.73;6.77;;;38.50;35.00;;;;;;5234168;28;20716;-46
2023/09/08 07:27:29;;;;;;;6.40;5.90;;;38.80;34.00;;;;;;5233595;28;20297;-47
2023/09/08 07:30:00;;;;;;;9.90;5.67;;;39.10;33.20;;;;;;5234127;28;20205;-49
2023/09/08 07:32:31;;;;;;;5.80;5.20;;;38.50;33.50;;;;;;5220060;28;20565;-47
2023/09/08 07:35:01;;;;;;;15.00;7.30;;;38.00;33.60;;;;;;5234772;28;20213;-47
2023/09/08 07:37:32;;;;;;;7.77;6.97;;;37.80;34.50;;;;;;5220668;28;20730;-46
2023/09/08 07:40:03;;;;;;;14.77;7.68;;;37.60;34.10;;;;;;5215046;28;20198;-47
2023/09/08 07:42:34;;;;;;;8.50;6.75;;;38.30;34.10;;;;;;5232088;28;20186;-49
2023/09/08 07:45:05;;;;;;;15.18;5.32;;;38.50;33.10;;;;;;5229276;28;20194;-46
2023/09/08 07:47:38;;;;;;;11.93;6.57;;;37.60;33.30;;;;;;5238118;28;20170;-46
2023/09/08 07:50:19;;;;;;;10.33;5.80;;;37.20;34.60;;;;;;5229308;28;20708;-47
2023/09/08 07:52:52;;;;;;;8.23;6.20;;;36.70;35.10;;;;;;5236932;28;20205;-48
2023/09/08 07:55:23;;;;;;;12.90;5.17;;;36.70;35.40;;;;;;5231053;28;20186;-46
2023/09/08 07:57:55;;;;;;;5.30;4.80;;;36.80;35.10;;;;;;5242059;28;20523;-47
2023/09/08 08:00:27;;;;;;;11.70;6.83;;;37.10;35.00;;;;;;5235009;28;20331;-47
2023/09/08 08:02:58;;;;;;;9.03;6.03;;;37.60;34.10;;;;;;5239402;28;20198;-46
2023/09/08 08:05:28;;;;;;;5.20;4.70;;;38.00;33.40;;;;;;5247991;28;20177;-47
2023/09/08 08:07:59;;;;;;;7.30;4.60;;;37.80;34.20;;;;;;5243521;28;20220;-47
2023/09/08 08:10:30;;;;;;;4.95;4.53;;;38.10;34.10;;;;;;5242975;28;20622;-48
2023/09/08 08:13:00;;;;;;;8.23;4.80;;;37.90;33.90;;;;;;5241958;28;20233;-47
2023/09/08 08:15:40;;;;;;;6.47;4.75;;;37.20;35.20;;;;;;5246248;28;20186;-47
2023/09/08 08:18:11;;;;;;;7.38;6.47;;;36.40;36.30;;;;;;5237511;28;20276;-46
2023/09/08 08:20:42;;;;;;;6.10;5.50;;;35.10;37.20;;;;;;5256980;28;20296;-47
2023/09/08 08:23:12;;;;;;;7.90;5.13;;;33.80;40.20;;;;;;5240066;28;20539;-48
2023/09/08 08:25:43;;;;;;;5.30;4.80;;;31.80;41.80;;;;;;5241207;28;20269;-46
2023/09/08 08:28:14;;;;;;;5.67;5.27;;;30.80;44.00;;;;;;5241512;28;20581;-45
2023/09/08 08:30:47;;;;;;;6.40;4.97;;;30.20;45.10;;;;;;5224092;28;20209;-46
2023/09/08 08:33:18;;;;;;;6.60;4.67;;;29.60;46.30;;;;;;5239254;28;20486;-45
2023/09/08 08:35:50;;;;;;;5.20;4.23;;;29.20;47.20;;;;;;5236573;28;20729;-44
2023/09/08 08:38:21;;;;;;;5.17;4.73;;;28.70;48.00;;;;;;5238254;28;20527;-46
2023/09/08 08:40:51;;;;;;;6.90;5.50;;;28.50;48.60;;;;;;5236866;28;20570;-46
2023/09/08 08:43:23;;;;;;;6.70;5.57;;;28.10;49.60;;;;;;5238586;28;20190;-48
2023/09/08 08:45:55;;;;;;;9.80;5.30;;;27.80;50.20;;;;;;5237175;28;20236;-46
2023/09/08 08:48:29;;;;;;;4.33;4.03;;;27.60;50.50;;;;;;5238045;28;20844;-46
2023/09/08 08:51:01;;;;;;;5.70;5.10;;;27.40;50.80;;;;;;5240163;28;20456;-46
2023/09/08 08:53:33;;;;;;;6.40;5.77;;;27.30;51.20;;;;;;5235876;28;20898;-47
2023/09/08 08:56:08;;;;;;;5.63;5.10;;;27.10;51.80;;;;;;5245012;28;20430;-45
2023/09/08 08:58:40;;;;;;;7.70;5.47;;;27.00;52.40;;;;;;5261242;28;20439;-45
2023/09/08 09:01:12;;;;;;;6.83;5.90;;;26.80;52.40;;;;;;5240568;28;20464;-46
2023/09/08 09:03:43;;;;;;;6.83;5.60;;;26.40;53.00;;;;;;5247588;28;20424;-46
2023/09/08 09:06:14;;;;;;;5.50;5.00;;;26.00;54.10;;;;;;5241680;28;20527;-45
2023/09/08 09:08:46;;;;;;;7.93;5.87;;;25.70;54.70;;;;;;5231650;28;20526;-47
2023/09/08 09:11:17;;;;;;;10.00;5.57;;;25.60;55.30;;;;;;5231634;28;20450;-44
2023/09/08 09:13:47;;;;;;;7.37;5.63;;;25.50;55.50;;;;;;5240786;28;20514;-46
2023/09/08 09:16:18;;;;;;;5.70;5.20;;;25.40;55.90;;;;;;5246599;28;20185;-46
2023/09/08 09:18:59;;;;;;;6.77;4.77;;;25.40;55.40;;;;;;5242213;28;20248;-48
2023/09/08 09:21:46;;;;;;;7.20;5.23;;;25.40;55.40;;;;;;5257082;28;20312;-47
2023/09/08 09:24:40;;;;;;;7.50;5.50;;;25.50;55.40;;;;;;5225728;28;20467;-46
2023/09/08 09:27:12;;;;;;;6.93;5.10;;;25.80;55.10;;;;;;5238370;28;20445;-45
2023/09/08 09:29:50;;;;;;;6.27;4.33;;;25.90;54.70;;;;;;5242764;28;20433;-45
2023/09/08 09:32:24;;;;;;;4.83;4.37;;;26.20;53.80;;;;;;5239400;28;20436;-46
2023/09/08 09:34:56;;;;;;;9.40;4.37;;;26.30;53.90;;;;;;5235555;28;20475;-45
2023/09/08 09:37:27;;;;;;;5.33;4.83;;;26.40;53.60;;;;;;5238028;28;20506;-45
2023/09/08 09:40:00;;;;;;;5.37;4.90;;;26.40;53.90;;;;;;5239025;28;20602;-45
2023/09/08 09:42:31;;;;;;;5.13;4.63;;;26.30;54.20;;;;;;5241218;28;20213;-47
2023/09/08 09:45:03;;;;;;;4.57;4.17;;;26.30;54.70;;;;;;5218916;28;20440;-46
2023/09/08 09:47:34;;;;;;;5.13;4.73;;;26.30;55.00;;;;;;5237060;28;20433;-46
2023/09/08 09:50:05;;;;;;;7.10;4.80;;;26.10;55.10;;;;;;5236556;28;20464;-45
2023/09/08 09:52:38;;;;;;;8.80;5.03;;;26.10;55.30;;;;;;5251658;28;20183;-48
2023/09/08 09:55:10;;;;;;;5.70;5.20;;;26.00;55.20;;;;;;5236811;28;20414;-46
2023/09/08 09:57:41;;;;;;;6.87;5.03;;;26.20;55.10;;;;;;5237272;28;20565;-44
2023/09/08 10:00:14;;;;;;;6.90;4.37;;;26.30;54.80;;;;;;5222025;28;20456;-46
2023/09/08 10:02:46;;;;;;;5.83;5.10;;;26.30;54.50;;;;;;5237030;28;20430;-46
2023/09/08 10:05:17;;;;;;;4.90;4.10;;;26.40;54.30;;;;;;5231806;28;20429;-48
2023/09/08 10:07:49;;;;;;;4.90;4.40;;;26.40;54.40;;;;;;5232309;28;20873;-46
2023/09/08 10:10:21;;;;;;;9.20;4.47;;;26.50;54.10;;;;;;5237711;28;20803;-46
2023/09/08 10:13:00;;;;;;;7.17;4.80;;;26.60;53.60;;;;;;5232724;28;20479;-46
2023/09/08 10:15:31;;;;;;;12.00;5.00;;;26.80;54.00;;;;;;5238457;28;20432;-47
2023/09/08 10:18:05;;;;;;;8.53;4.70;;;26.70;53.30;;;;;;5237366;28;20432;-47
2023/09/08 10:20:37;;;;;;;7.67;4.17;;;26.80;53.00;;;;;;5231352;28;20492;-47
2023/09/08 10:23:19;;;;;;;12.50;4.53;;;26.70;52.70;;;;;;5244320;28;20433;-46
2023/09/08 10:25:56;;;;;;;6.90;4.27;;;26.70;52.50;;;;;;5233254;28;20475;-46
2023/09/08 10:28:27;;;;;;;7.90;4.83;;;26.60;52.20;;;;;;5232578;28;20468;-47
2023/09/08 10:30:58;;;;;;;7.80;4.03;;;26.50;52.90;;;;;;5238007;28;20444;-47
2023/09/08 10:33:31;;;;;;;10.27;4.43;;;26.50;53.30;;;;;;5234311;28;20461;-47
2023/09/08 10:36:04;;;;;;;23.93;4.40;;;26.60;53.50;;;;;;5233786;28;20442;-45
2023/09/08 10:38:35;;;;;;;5.50;3.83;;;26.70;53.40;;;;;;5246698;28;20436;-46
2023/09/08 10:41:15;;;;;;;11.63;3.87;;;26.80;53.00;;;;;;5235439;28;21019;-46
2023/09/08 10:43:57;;;;;;;4.97;4.13;;;27.00;53.00;;;;;;5234755;28;20178;-48
2023/09/08 10:46:30;;;;;;;3.57;3.37;;;27.00;52.40;;;;;;5232761;28;20446;-49
2023/09/08 10:49:06;;;;;;;5.00;4.30;;;27.10;52.40;;;;;;5237766;28;20440;-46
2023/09/08 10:51:39;;;;;;;7.57;3.97;;;27.30;52.00;;;;;;5241760;28;20459;-47
2023/09/08 10:54:10;;;;;;;4.60;3.80;;;27.40;51.80;;;;;;5242385;28;20507;-46
2023/09/08 10:56:54;;;;;;;5.40;3.80;;;27.40;51.60;;;;;;5235028;28;20821;-46
2023/09/08 10:59:35;;;;;;;3.63;3.30;;;27.40;51.70;;;;;;5239896;28;20440;-45
2023/09/08 11:02:05;;;;;;;5.30;4.90;;;27.50;51.50;;;;;;5238022;28;20429;-45
2023/09/08 11:04:37;;;;;;;4.63;4.00;;;27.60;51.40;;;;;;5235245;28;20791;-46
2023/09/08 11:07:07;;;;;;;4.23;3.67;;;27.60;50.90;;;;;;5235965;28;20186;-46
2023/09/08 11:09:38;;;;;;;4.80;4.37;;;27.60;51.30;;;;;;5237309;28;20432;-47
2023/09/08 11:12:09;;;;;;;5.90;4.27;;;27.40;51.60;;;;;;5233781;28;20292;-46
2023/09/08 11:14:40;;;;;;;9.63;4.70;;;27.30;51.90;;;;;;5236518;28;20207;-45
2023/09/08 11:17:11;;;;;;;3.53;3.23;;;27.10;52.40;;;;;;5238833;28;20267;-45
2023/09/08 11:19:49;;;;;;;6.93;4.77;;;27.00;51.90;;;;;;5232993;28;20185;-46
2023/09/08 11:22:26;;;;;;;10.33;4.00;;;27.00;52.40;;;;;;5236604;28;20190;-48
2023/09/08 11:24:57;;;;;;;4.80;4.40;;;27.00;52.70;;;;;;5238274;28;20496;-47
2023/09/08 11:27:29;;;;;;;4.17;3.87;;;27.10;52.20;;;;;;5250714;28;20433;-45
2023/09/08 11:29:59;;;;;;;7.20;4.53;;;27.20;52.00;;;;;;5235244;28;20461;-46
2023/09/08 11:32:34;;;;;;;3.57;3.37;;;27.30;52.00;;;;;;5230394;28;20942;-46
2023/09/08 11:35:07;;;;;;;4.13;3.93;;;27.20;51.60;;;;;;5233028;28;20187;-45
2023/09/08 11:37:39;;;;;;;8.27;3.77;;;27.30;51.80;;;;;;5228310;28;20504;-46
2023/09/08 11:40:14;;;;;;;15.13;5.60;;;27.40;51.80;;;;;;5236688;28;20863;-46
2023/09/08 11:42:45;;;;;;;7.17;4.07;;;27.50;51.30;;;;;;5239768;28;20491;-45
2023/09/08 11:45:23;;;;;;;5.90;4.40;;;27.60;51.40;;;;;;5233732;28;20453;-46
2023/09/08 11:47:54;;;;;;;5.57;3.90;;;27.70;51.30;;;;;;5240130;28;20463;-45
2023/09/08 11:50:25;;;;;;;4.53;4.10;;;27.80;51.00;;;;;;5232138;28;20839;-46
2023/09/08 11:52:58;;;;;;;4.90;3.97;;;27.90;51.10;;;;;;5243352;28;20489;-45
2023/09/08 11:55:29;;;;;;;3.83;3.53;;;28.00;50.50;;;;;;5242708;28;20269;-46
2023/09/08 11:58:01;;;;;;;6.40;3.30;;;28.10;50.10;;;;;;5235827;28;20535;-47
2023/09/08 12:00:32;;;;;;;6.67;5.10;;;28.10;50.10;;;;;;5238933;28;20256;-47
2023/09/08 12:03:15;;;;;;;5.27;4.77;;;28.10;49.50;;;;;;5239578;28;20433;-47
2023/09/08 12:05:51;;;;;;;7.93;4.27;;;27.90;48.20;;;;;;5240727;28;20878;-45
2023/09/08 12:08:26;;;;;;;4.33;3.60;;;27.80;48.10;;;;;;5237427;28;20499;-47
2023/09/08 12:10:56;;;;;;;4.50;3.73;;;27.60;48.90;;;;;;5242615;28;20863;-46
2023/09/08 12:13:27;;;;;;;3.97;3.67;;;27.50;48.20;;;;;;5236362;28;20499;-46
2023/09/08 12:15:57;;;;;;;4.53;3.80;;;27.60;48.80;;;;;;5241055;28;20267;-45
2023/09/08 12:18:39;;;;;;;5.37;4.60;;;27.70;49.00;;;;;;5236351;28;20194;-46
2023/09/08 12:21:09;;;;;;;3.50;3.30;;;27.80;49.70;;;;;;5239361;28;20601;-47
2023/09/08 12:23:54;;;;;;;11.23;3.83;;;27.80;48.80;;;;;;5239994;28;20509;-46
2023/09/08 12:26:25;;;;;;;5.40;2.90;;;27.80;48.70;;;;;;5238865;28;20223;-44
2023/09/08 12:28:56;;;;;;;4.47;4.17;;;27.80;48.60;;;;;;5238744;28;20438;-44
2023/09/08 12:31:26;;;;;;;6.93;5.03;;;27.80;49.00;;;;;;5234717;28;20444;-47
2023/09/08 12:33:57;;;;;;;4.07;3.67;;;27.80;49.70;;;;;;5242488;28;20244;-44
2023/09/08 12:36:28;;;;;;;3.70;3.50;;;27.70;49.00;;;;;;5245292;28;20175;-47
2023/09/08 12:38:58;;;;;;;5.60;3.83;;;27.70;48.60;;;;;;5239565;28;20186;-44
2023/09/08 12:41:29;;;;;;;3.90;3.60;;;27.70;48.50;;;;;;5241922;28;20226;-45
2023/09/08 12:43:59;;;;;;;7.80;3.83;;;27.70;48.10;;;;;;5234304;28;20197;-44
2023/09/08 12:46:31;;;;;;;3.90;3.07;;;27.70;47.60;;;;;;5241007;28;20182;-46
2023/09/08 12:49:02;;;;;;;4.43;4.03;;;27.80;46.40;;;;;;5240281;28;20213;-46
2023/09/08 12:51:33;;;;;;;4.00;3.70;;;27.70;47.40;;;;;;5234612;28;20578;-45
2023/09/08 12:54:03;;;;;;;8.40;3.90;;;27.80;47.80;;;;;;5240056;28;20264;-45
2023/09/08 12:56:34;;;;;;;4.90;4.40;;;27.90;47.10;;;;;;5235530;28;20280;-45
2023/09/08 12:59:04;;;;;;;4.10;3.70;;;27.80;46.20;;;;;;5241707;28;20179;-44
2023/09/08 13:01:35;;;;;;;4.37;4.07;;;27.90;46.60;;;;;;5237222;28;20190;-46
2023/09/08 13:04:06;;;;;;;4.20;3.73;;;28.00;46.90;;;;;;5245174;28;20201;-45
2023/09/08 13:06:36;;;;;;;6.27;3.73;;;28.00;46.60;;;;;;5239962;28;20182;-48